ADDS METAR Data INFO
IDs: Format: Raw Decoded Include TAF

Data at: 0852 UTC 19 Jun 2018

PAOM 190753Z AUTO 02013KT 10SM -RA BKN060 OVC070 12/09 A2958 RMK SLP016 P0001 T01170094 TSNO VIA AUTODIAL
PAOM 190653Z 02012KT 10SM -RA OVC075 12/11 A2958 RMK SLP015 P0000 T01220106 VIA AUTODIAL
PAOM 190553Z 02010KT 10SM -RA BKN060 OVC075 13/11 A2957 RMK SLP014 P0001 60002 T01280111 10178 20122 51003 VIA AUTODIAL
PAOM 190453Z 30004KT 10SM -RA BKN060 OVC075 12/10 A2957 RMK SLP014 P0000 T01220100 VIA AUTODIAL
PAOM 190353Z 12004KT 10SM -RA FEW038 SCT046 OVC055 12/09 A2957 RMK SLP014 P0001 T01220089 VIA AUTODIAL
PAOM 190253Z 13007KT 10SM -RA SCT042 BKN060 OVC070 13/09 A2956 RMK RAB24 SLP011 P0000 60000 T01280089 53003 VIA AUTODIAL
PAOM 190153Z 07014KT 10SM SCT055 BKN070 17/04 A2954 RMK SLP004 T01720044 VIA AUTODIAL
PAOM 190053Z 01014KT 10SM OVC065 17/06 A2955 RMK SLP006 T01720061 VIA AUTODIAL
PAOM 182353Z 01015G19KT 10SM BKN065 OVC120 17/05 A2956 RMK SLP009 T01670050 10172 20122 58012 VIA AUTODIAL
PAOM 182253Z 01008KT 10SM BKN050 OVC060 16/05 A2957 RMK AO2 SLP013 T01560050
PAOM 182153Z 04008KT 10SM FEW040 OVC080 16/06 A2958 RMK AO2 SLP016 T01560056
PAOM 182053Z 04011KT 10SM FEW035 SCT055 OVC080 14/06 A2959 RMK AO2 SLP020 T01440061 56005
PAOM 181953Z 05008KT 10SM SCT033 BKN050 BKN060 14/06 A2959 RMK SLP021 T01390061 VIA AUTODIAL
PAOM 181853Z 08008KT 10SM FEW050 SCT070 BKN085 13/07 A2960 RMK SLP023 T01330072 VIA AUTODIAL
PAOM 181753Z 07008KT 10SM FEW023 BKN049 OVC070 13/07 A2961 RMK AO2 SLP026 T01280072 10128 20078 58003
PAOM 181653Z 07010KT 10SM BKN049 OVC090 12/07 A2961 RMK AO2 SLP028 T01170072
PAOM 181553Z 07009KT 10SM FEW055 11/07 A2962 RMK AO2 SLP029 T01060067 $
PAOM 181453Z AUTO 05007KT 10SM OVC110 10/07 A2962 RMK SLP029 T01000072 58006 TSNO $ VIA AUTODIAL
PAOM 181353Z AUTO 36007KT 10SM FEW043 OVC110 08/07 A2962 RMK SLP032 T00780067 TSNO $ VIA AUTODIAL
PAOM 181253Z AUTO 04005KT 10SM OVC120 08/07 A2963 RMK AO2 SLP034 T00830067 TSNO $
PAOM 181153Z AUTO 00000KT 10SM OVC047 09/07 A2963 RMK AO2 SLP035 T00890067 10106 20072 58008 TSNO $
PAOM 181053Z AUTO 03004KT 10SM BKN060 08/06 A2964 RMK AO2 SLP038 T00780061 TSNO $
PAOM 180953Z AUTO 06005KT 10SM BKN047 09/08 A2966 RMK AO2 SLP043 T00890078 TSNO $
PAOM 180853Z AUTO 06006KT 10SM FEW095 08/07 A2966 RMK AO2 SLP043 T00830072 401390050 51006 TSNO $
PAOM 180753Z AUTO 08004KT 10SM BKN070 11/08 A2966 RMK SLP043 T01060078 TSNO $ VIA AUTODIAL
PAOM 180653Z 11006KT 10SM OVC065 10/08 A2965 RMK SLP041 T01000078 $ VIA AUTODIAL
PAOM 180553Z 12013KT 10SM SCT060 OVC075 11/08 A2964 RMK SLP037 T01060083 10128 20106 53004 $ VIA AUTODIAL
PAOM 180453Z 12013KT 10SM OVC085 11/08 A2963 RMK SLP035 T01060083 $ VIA AUTODIAL
PAOM 180353Z 14008KT 10SM OVC110 11/08 A2963 RMK SLP034 T01110078 $ VIA AUTODIAL
PAOM 180253Z 15009KT 10SM BKN090 12/06 A2963 RMK SLP033 T01220061 51001 $ VIA AUTODIAL
PAOM 180153Z 15007KT 10SM SCT095 BKN200 12/04 A2963 RMK SLP033 T01170044 $ VIA AUTODIAL
PAOM 180053Z 22006KT 10SM SCT100 BKN200 12/03 A2963 RMK AO2 SLP034 T01220028 $
PAOM 172353Z 18007KT 10SM SCT085 BKN200 12/02 A2963 RMK AO2 SLP032 T01170022 10139 20111 53007 $
PAOM 172253Z 21007KT 10SM SCT075 12/02 A2962 RMK AO2 SLP029 T01170017 $
PAOM 172153Z 22007KT 10SM CLR 12/01 A2961 RMK AO2 SLP027 T01170011 $
PAOM 172053Z 22006KT 10SM CLR 12/01 A2961 RMK AO2 SLP025 T01170006 53003 $